createdAt,value
2019-01-26T00:00:04.111Z,0.00
2019-01-26T00:01:05.088Z,0.00
2019-01-26T00:02:04.143Z,0.00
2019-01-26T00:03:04.183Z,0.00
2019-01-26T00:04:04.007Z,0.00
2019-01-26T00:05:04.623Z,0.00
2019-01-26T00:06:04.002Z,0.00
2019-01-26T00:07:03.961Z,0.00
2019-01-26T00:08:03.914Z,0.00
2019-01-26T00:09:03.935Z,0.00
2019-01-26T00:10:05.139Z,0.00
2019-01-26T00:11:03.868Z,0.00
2019-01-26T00:12:03.930Z,0.00
2019-01-26T00:13:03.888Z,0.00
2019-01-26T00:14:03.859Z,0.00
2019-01-26T00:15:03.867Z,0.00
2019-01-26T00:16:03.800Z,0.00
2019-01-26T00:17:06.736Z,0.00
2019-01-26T00:18:03.813Z,0.00
2019-01-26T00:19:03.802Z,0.00
2019-01-26T00:20:03.783Z,0.00
2019-01-26T00:21:03.772Z,0.00
2019-01-26T00:22:03.767Z,0.00
2019-01-26T00:23:03.762Z,0.00
2019-01-26T00:24:03.811Z,0.00
2019-01-26T00:25:03.729Z,0.00
2019-01-26T00:26:03.738Z,0.00
2019-01-26T00:27:03.742Z,0.00
2019-01-26T00:28:03.768Z,0.00
2019-01-26T00:29:03.704Z,0.00
2019-01-26T00:30:03.663Z,0.00
2019-01-26T00:31:03.677Z,0.00
2019-01-26T00:32:03.638Z,0.00
2019-01-26T00:33:04.102Z,0.00
2019-01-26T00:34:03.669Z,0.00
2019-01-26T00:35:03.636Z,0.00
2019-01-26T00:36:03.625Z,0.00
2019-01-26T00:37:03.612Z,0.00
2019-01-26T00:38:03.601Z,0.00
2019-01-26T00:39:03.628Z,0.00
2019-01-26T00:40:04.366Z,0.00
2019-01-26T00:41:03.552Z,0.00
2019-01-26T00:42:03.574Z,0.00
2019-01-26T00:43:03.653Z,0.00
2019-01-26T00:44:03.497Z,0.00
2019-01-26T00:45:03.507Z,0.00
2019-01-26T00:46:03.503Z,0.00
2019-01-26T00:47:03.499Z,0.00
2019-01-26T00:48:03.507Z,0.00
2019-01-26T00:49:03.483Z,0.00
2019-01-26T00:50:03.435Z,0.00
2019-01-26T00:51:03.445Z,0.00
2019-01-26T00:52:03.478Z,0.00
2019-01-26T00:53:03.457Z,0.00
2019-01-26T00:54:03.428Z,0.00
2019-01-26T00:55:03.382Z,0.00
2019-01-26T00:56:03.369Z,0.00
2019-01-26T00:57:03.366Z,0.00
2019-01-26T00:58:03.373Z,0.00
2019-01-26T00:59:03.359Z,0.00
2019-01-26T01:00:03.370Z,0.00
2019-01-26T01:01:03.352Z,0.00
2019-01-26T01:02:03.312Z,0.00
2019-01-26T01:03:08.081Z,0.00
2019-01-26T01:04:03.282Z,0.00
2019-01-26T01:05:03.265Z,0.00
2019-01-26T01:06:03.294Z,0.00
2019-01-26T01:07:03.331Z,0.00
2019-01-26T01:08:03.267Z,0.00
2019-01-26T01:09:03.223Z,0.00
2019-01-26T01:10:03.256Z,0.00
2019-01-26T01:11:03.237Z,0.00
2019-01-26T01:12:03.247Z,0.00
2019-01-26T01:13:03.218Z,0.00
2019-01-26T01:14:03.732Z,0.00
2019-01-26T01:15:03.159Z,0.00
2019-01-26T01:16:03.222Z,0.00
2019-01-26T01:17:03.179Z,0.00
2019-01-26T01:18:03.171Z,0.00
2019-01-26T01:19:03.139Z,0.00
2019-01-26T01:20:03.149Z,0.00
2019-01-26T01:21:03.178Z,0.00
2019-01-26T01:22:03.093Z,0.00
2019-01-26T01:23:03.079Z,0.00
2019-01-26T01:24:03.116Z,0.00
2019-01-26T01:25:03.092Z,0.00
2019-01-26T01:26:03.060Z,0.00
2019-01-26T01:27:03.088Z,0.00
2019-01-26T01:28:03.067Z,0.00
2019-01-26T01:29:03.074Z,0.00
2019-01-26T01:30:02.995Z,0.00
2019-01-26T01:31:02.999Z,0.00
2019-01-26T01:32:02.986Z,0.00
2019-01-26T01:33:03.026Z,0.00
2019-01-26T01:34:02.960Z,0.00
2019-01-26T01:35:03.507Z,0.00
2019-01-26T01:36:02.925Z,0.00
2019-01-26T01:37:02.977Z,0.00
2019-01-26T01:38:03.045Z,0.00
2019-01-26T01:39:02.917Z,0.00
2019-01-26T01:40:02.921Z,0.00
2019-01-26T01:41:02.867Z,0.00
2019-01-26T01:42:02.898Z,0.00
2019-01-26T01:43:02.890Z,0.00
2019-01-26T01:44:02.875Z,0.00
2019-01-26T01:45:02.858Z,0.00
2019-01-26T01:46:02.848Z,0.00
2019-01-26T01:47:02.827Z,0.00
2019-01-26T01:48:02.841Z,0.00
2019-01-26T01:49:02.791Z,0.00
2019-01-26T01:50:02.796Z,0.00
2019-01-26T01:51:02.768Z,0.00
2019-01-26T01:52:02.763Z,0.00
2019-01-26T01:53:02.777Z,0.00
2019-01-26T01:54:02.729Z,0.00
2019-01-26T01:55:02.754Z,0.00
2019-01-26T01:56:02.764Z,0.00
2019-01-26T01:57:02.725Z,0.00
2019-01-26T01:58:03.688Z,0.00
2019-01-26T01:59:02.675Z,0.00
2019-01-26T02:00:02.726Z,0.00
2019-01-26T02:01:04.097Z,0.00
2019-01-26T02:02:02.680Z,0.00
2019-01-26T02:03:02.632Z,0.00
2019-01-26T02:04:02.651Z,0.00
2019-01-26T02:05:02.656Z,0.00
2019-01-26T02:06:02.655Z,0.00
2019-01-26T02:07:02.625Z,0.00
2019-01-26T02:08:02.704Z,0.00
2019-01-26T02:09:02.565Z,0.00
2019-01-26T02:10:02.573Z,0.00
2019-01-26T02:11:03.734Z,0.00
2019-01-26T02:12:02.573Z,0.00
2019-01-26T02:13:02.572Z,0.00
2019-01-26T02:14:02.550Z,0.00
2019-01-26T02:15:02.529Z,0.00
2019-01-26T02:16:03.427Z,0.00
2019-01-26T02:17:02.531Z,0.00
2019-01-26T02:18:02.490Z,0.00
2019-01-26T02:19:02.502Z,0.00
2019-01-26T02:20:02.446Z,0.00
2019-01-26T02:21:02.438Z,0.00
2019-01-26T02:22:02.421Z,0.00
2019-01-26T02:23:02.465Z,0.00
2019-01-26T02:24:02.472Z,0.00
2019-01-26T02:25:02.397Z,0.00
2019-01-26T02:26:02.455Z,0.00
2019-01-26T02:27:02.372Z,0.00
2019-01-26T02:28:03.764Z,0.00
2019-01-26T02:29:02.591Z,0.00
2019-01-26T02:30:02.361Z,0.00
2019-01-26T02:31:02.323Z,0.00
2019-01-26T02:32:02.317Z,0.00
2019-01-26T02:33:02.318Z,0.00
2019-01-26T02:34:02.298Z,0.00
2019-01-26T02:35:02.307Z,0.00
2019-01-26T02:36:02.297Z,0.00
2019-01-26T02:37:02.270Z,0.00
2019-01-26T02:38:12.266Z,0.00
2019-01-26T02:39:02.244Z,0.00
2019-01-26T02:40:02.262Z,0.00
2019-01-26T02:41:02.222Z,0.00
2019-01-26T02:42:02.203Z,0.00
2019-01-26T02:43:02.685Z,0.00
2019-01-26T02:44:02.186Z,0.00
2019-01-26T02:45:02.211Z,0.00
2019-01-26T02:46:02.178Z,0.00
2019-01-26T02:47:02.172Z,0.00
2019-01-26T02:48:02.219Z,0.00
2019-01-26T02:49:02.172Z,0.00
2019-01-26T02:50:02.141Z,0.00
2019-01-26T02:51:03.759Z,0.00
2019-01-26T02:52:02.140Z,0.00
2019-01-26T02:53:02.821Z,0.00
2019-01-26T02:54:02.305Z,0.00
2019-01-26T02:55:02.114Z,0.00
2019-01-26T02:56:02.072Z,0.00
2019-01-26T02:57:02.041Z,0.00
2019-01-26T02:58:02.071Z,0.00
2019-01-26T02:59:02.029Z,0.00
2019-01-26T03:00:02.033Z,0.00
2019-01-26T03:01:02.034Z,0.00
2019-01-26T03:02:02.002Z,0.00
2019-01-26T03:03:01.992Z,0.00
2019-01-26T03:04:02.006Z,0.00
2019-01-26T03:05:01.978Z,0.00
2019-01-26T03:06:01.951Z,0.00
2019-01-26T03:07:01.946Z,0.00
2019-01-26T03:08:01.962Z,0.00
2019-01-26T03:09:01.933Z,0.00
2019-01-26T03:10:01.906Z,0.00
2019-01-26T03:11:02.071Z,0.00
2019-01-26T03:12:01.895Z,0.00
2019-01-26T03:13:01.885Z,0.00
2019-01-26T03:14:01.933Z,0.00
2019-01-26T03:15:01.846Z,0.00
2019-01-26T03:16:01.837Z,0.00
2019-01-26T03:17:06.136Z,0.00
2019-01-26T03:18:01.830Z,0.00
2019-01-26T03:19:01.804Z,0.00
2019-01-26T03:20:01.804Z,0.00
2019-01-26T03:21:01.826Z,0.00
2019-01-26T03:22:01.792Z,0.00
2019-01-26T03:23:01.773Z,0.00
2019-01-26T03:24:01.788Z,0.00
2019-01-26T03:25:01.738Z,0.00
2019-01-26T03:26:01.724Z,0.00
2019-01-26T03:27:01.717Z,0.00
2019-01-26T03:28:01.758Z,0.00
2019-01-26T03:29:01.747Z,0.00
2019-01-26T03:30:01.723Z,0.00
2019-01-26T03:31:01.725Z,0.00
2019-01-26T03:32:01.674Z,0.00
2019-01-26T03:33:01.686Z,0.00
2019-01-26T03:34:01.672Z,0.00
2019-01-26T03:35:01.847Z,0.00
2019-01-26T03:36:01.616Z,0.00
2019-01-26T03:37:01.652Z,0.00
2019-01-26T03:38:01.642Z,0.00
2019-01-26T03:39:01.621Z,0.00
2019-01-26T03:40:01.573Z,0.00
2019-01-26T03:41:01.568Z,0.00
2019-01-26T03:42:01.554Z,0.00
2019-01-26T03:43:01.612Z,0.00
2019-01-26T03:44:01.568Z,0.00
2019-01-26T03:45:01.543Z,0.00
2019-01-26T03:46:01.502Z,0.00
2019-01-26T03:47:01.528Z,0.00
2019-01-26T03:48:01.519Z,0.00
2019-01-26T03:49:01.523Z,0.00
2019-01-26T03:50:01.466Z,0.00
2019-01-26T03:51:01.480Z,0.00
2019-01-26T03:52:01.458Z,0.00
2019-01-26T03:53:01.446Z,0.00
2019-01-26T03:54:01.489Z,0.00
2019-01-26T03:55:01.501Z,0.00
2019-01-26T03:56:01.625Z,0.00
2019-01-26T03:57:01.393Z,0.00
2019-01-26T03:58:01.374Z,0.00
2019-01-26T03:59:01.430Z,0.00
2019-01-26T04:00:01.376Z,0.00
2019-01-26T04:01:01.353Z,0.00
2019-01-26T04:02:01.419Z,0.00
2019-01-26T04:03:01.333Z,0.00
2019-01-26T04:04:01.332Z,0.00
2019-01-26T04:05:01.310Z,0.00
2019-01-26T04:06:01.297Z,0.00
2019-01-26T04:07:01.288Z,0.00
2019-01-26T04:08:01.270Z,0.00
2019-01-26T04:09:01.270Z,0.00
2019-01-26T04:10:01.280Z,0.00
2019-01-26T04:11:01.243Z,0.00
2019-01-26T04:12:01.229Z,0.00
2019-01-26T04:13:01.209Z,0.00
2019-01-26T04:14:01.220Z,0.00
2019-01-26T04:15:01.201Z,0.00
2019-01-26T04:16:01.178Z,0.00
2019-01-26T04:17:01.290Z,0.00
2019-01-26T04:18:01.201Z,0.00
2019-01-26T04:19:01.163Z,0.00
2019-01-26T04:20:01.143Z,0.00
2019-01-26T04:21:01.129Z,0.00
2019-01-26T04:22:01.117Z,0.00
2019-01-26T04:23:01.101Z,0.00
2019-01-26T04:24:01.122Z,0.00
2019-01-26T04:25:01.078Z,0.00
2019-01-26T04:26:01.097Z,0.00
2019-01-26T04:27:01.078Z,0.00
2019-01-26T04:28:01.045Z,0.00
2019-01-26T04:29:01.081Z,0.00
2019-01-26T04:30:01.036Z,0.00
2019-01-26T04:31:01.013Z,0.00
2019-01-26T04:32:01.017Z,0.00
2019-01-26T04:33:00.999Z,0.00
2019-01-26T04:34:01.001Z,0.00
2019-01-26T04:35:00.992Z,0.00
2019-01-26T04:36:01.009Z,0.00
2019-01-26T04:37:00.956Z,0.00
2019-01-26T04:38:00.940Z,0.00
2019-01-26T04:39:00.945Z,0.00
2019-01-26T04:40:00.931Z,0.00
2019-01-26T04:41:00.941Z,0.00
2019-01-26T04:42:00.895Z,0.00
2019-01-26T04:43:00.896Z,0.00
2019-01-26T04:44:00.899Z,0.00
2019-01-26T04:45:00.887Z,0.00
2019-01-26T04:46:00.858Z,0.00
2019-01-26T04:47:00.846Z,0.00
2019-01-26T04:48:00.836Z,0.00
2019-01-26T04:49:00.843Z,0.00
2019-01-26T04:50:00.935Z,0.00
2019-01-26T04:51:00.832Z,0.00
2019-01-26T04:52:00.848Z,0.00
2019-01-26T04:53:00.820Z,0.00
2019-01-26T04:54:00.770Z,0.00
2019-01-26T04:55:00.790Z,0.00
2019-01-26T04:56:00.749Z,0.00
2019-01-26T04:57:00.772Z,0.00
2019-01-26T04:58:00.735Z,0.00
2019-01-26T04:59:00.717Z,0.00
2019-01-26T05:00:00.729Z,0.00
2019-01-26T05:01:00.702Z,0.00
2019-01-26T05:02:00.681Z,0.00
2019-01-26T05:03:00.697Z,0.00
2019-01-26T05:04:00.650Z,0.00
2019-01-26T05:05:00.673Z,0.00
2019-01-26T05:06:00.644Z,0.00
2019-01-26T05:07:00.621Z,0.00
2019-01-26T05:08:00.619Z,0.00
2019-01-26T05:09:00.661Z,0.00
2019-01-26T05:10:00.607Z,0.00
2019-01-26T05:11:00.597Z,0.00
2019-01-26T05:12:00.603Z,0.00
2019-01-26T05:13:00.571Z,0.00
2019-01-26T05:14:00.557Z,0.00
2019-01-26T05:15:00.601Z,0.00
2019-01-26T05:16:00.527Z,0.00
2019-01-26T05:17:00.515Z,0.00
2019-01-26T05:18:00.507Z,0.00
2019-01-26T05:19:00.504Z,0.00
2019-01-26T05:20:00.523Z,0.00
2019-01-26T05:21:00.498Z,0.00
2019-01-26T05:22:00.461Z,0.00
2019-01-26T05:23:00.532Z,0.00
2019-01-26T05:24:00.449Z,0.00
2019-01-26T05:25:00.454Z,0.00
2019-01-26T05:26:00.420Z,0.00
2019-01-26T05:27:00.653Z,0.00
2019-01-26T05:28:00.394Z,0.00
2019-01-26T05:29:00.444Z,0.00
2019-01-26T05:30:00.399Z,0.00
2019-01-26T05:31:00.394Z,0.00
2019-01-26T05:32:00.349Z,0.00
2019-01-26T05:33:00.361Z,0.00
2019-01-26T05:34:00.334Z,0.00
2019-01-26T05:35:00.350Z,0.00
2019-01-26T05:36:00.570Z,0.00
2019-01-26T05:37:00.299Z,0.00
2019-01-26T05:38:00.292Z,0.00
2019-01-26T05:39:00.271Z,0.00
2019-01-26T05:40:00.285Z,0.00
2019-01-26T05:41:00.269Z,0.00
2019-01-26T05:42:00.243Z,0.00
2019-01-26T05:43:00.242Z,0.00
2019-01-26T05:44:00.233Z,0.00
2019-01-26T05:45:00.268Z,0.00
2019-01-26T05:46:00.379Z,0.00
2019-01-26T05:47:00.204Z,0.00
2019-01-26T05:48:00.187Z,0.00
2019-01-26T05:49:00.167Z,0.00
2019-01-26T05:50:00.318Z,0.00
2019-01-26T05:51:00.152Z,0.00
2019-01-26T05:52:00.145Z,0.00
2019-01-26T05:53:00.144Z,0.00
2019-01-26T05:54:00.649Z,0.00
2019-01-26T05:55:00.197Z,0.00
2019-01-26T05:56:00.101Z,0.00
2019-01-26T05:57:00.087Z,0.00
2019-01-26T05:58:00.075Z,0.00
2019-01-26T05:59:00.077Z,0.00
2019-01-26T06:00:00.140Z,0.00
2019-01-26T06:01:00.036Z,0.00
2019-01-26T06:02:00.025Z,0.00
2019-01-26T06:03:00.019Z,0.00
2019-01-26T06:04:00.039Z,0.00
2019-01-26T06:05:00.011Z,0.00
2019-01-26T06:05:59.996Z,0.00
2019-01-26T06:06:59.973Z,0.00
2019-01-26T06:07:59.957Z,0.00
2019-01-26T06:08:59.953Z,0.00
2019-01-26T06:09:59.958Z,0.00
2019-01-26T06:10:59.927Z,0.00
2019-01-26T06:11:59.920Z,0.00
2019-01-26T06:12:59.907Z,0.00
2019-01-26T06:13:59.899Z,0.00
2019-01-26T06:14:59.888Z,0.00
2019-01-26T06:15:59.891Z,0.00
2019-01-26T06:16:59.996Z,0.00
2019-01-26T06:17:59.855Z,0.00
2019-01-26T06:18:59.836Z,0.00
2019-01-26T06:19:59.827Z,0.00
2019-01-26T06:20:59.893Z,0.00
2019-01-26T06:21:59.805Z,0.00
2019-01-26T06:22:59.811Z,0.00
2019-01-26T06:23:59.789Z,0.00
2019-01-26T06:24:59.768Z,0.00
2019-01-26T06:25:59.776Z,0.00
2019-01-26T06:26:59.757Z,0.00
2019-01-26T06:27:59.753Z,0.00
2019-01-26T06:28:59.733Z,0.00
2019-01-26T06:29:59.722Z,0.00
2019-01-26T06:30:59.721Z,0.00
2019-01-26T06:31:59.699Z,0.00
2019-01-26T06:32:59.689Z,0.00
2019-01-26T06:33:59.678Z,0.00
2019-01-26T06:34:59.665Z,0.00
2019-01-26T06:35:59.683Z,0.00
2019-01-26T06:36:59.654Z,0.00
2019-01-26T06:37:59.629Z,0.00
2019-01-26T06:38:59.622Z,0.00
2019-01-26T06:39:59.608Z,0.00
2019-01-26T06:40:59.630Z,0.00
2019-01-26T06:41:59.590Z,0.00
2019-01-26T06:42:59.573Z,0.00
2019-01-26T06:43:59.570Z,0.00
2019-01-26T06:44:59.553Z,0.00
2019-01-26T06:45:59.574Z,0.00
2019-01-26T06:46:59.534Z,0.00
2019-01-26T06:48:02.281Z,0.00
2019-01-26T06:48:59.642Z,0.00
2019-01-26T06:49:59.510Z,0.00
2019-01-26T06:50:59.525Z,0.00
2019-01-26T06:51:59.492Z,0.00
2019-01-26T06:52:59.466Z,0.00
2019-01-26T06:53:59.499Z,0.00
2019-01-26T06:54:59.455Z,0.00
2019-01-26T06:55:59.460Z,0.00
2019-01-26T06:56:59.436Z,0.00
2019-01-26T06:57:59.557Z,0.00
2019-01-26T06:58:59.427Z,0.00
2019-01-26T06:59:59.387Z,0.00
2019-01-26T07:00:59.404Z,0.00
2019-01-26T07:01:59.368Z,0.00
2019-01-26T07:02:59.365Z,0.00
2019-01-26T07:03:59.352Z,0.00
2019-01-26T07:04:59.339Z,0.00
2019-01-26T07:05:59.354Z,0.00
2019-01-26T07:06:59.313Z,0.00
2019-01-26T07:07:59.310Z,0.00
2019-01-26T07:08:59.296Z,0.00
2019-01-26T07:09:59.277Z,0.00
2019-01-26T07:10:59.287Z,0.00
2019-01-26T07:11:59.315Z,0.00
2019-01-26T07:12:59.263Z,0.00
2019-01-26T07:13:59.316Z,0.00
2019-01-26T07:14:59.234Z,0.00
2019-01-26T07:15:59.238Z,0.00
2019-01-26T07:16:59.205Z,0.00
2019-01-26T07:17:59.193Z,0.00
2019-01-26T07:18:59.185Z,4.00
2019-01-26T07:19:59.173Z,4.00
2019-01-26T07:20:59.190Z,4.00
2019-01-26T07:21:59.161Z,4.00
2019-01-26T07:22:59.144Z,4.00
2019-01-26T07:23:59.175Z,0.00
2019-01-26T07:24:59.125Z,0.00
2019-01-26T07:25:59.128Z,4.00
2019-01-26T07:26:59.114Z,4.00
2019-01-26T07:27:59.102Z,4.00
2019-01-26T07:28:59.089Z,4.00
2019-01-26T07:29:59.096Z,4.00
2019-01-26T07:30:59.072Z,4.00
2019-01-26T07:31:59.053Z,4.00
2019-01-26T07:32:59.082Z,4.00
2019-01-26T07:33:59.019Z,4.00
2019-01-26T07:35:02.059Z,8.00
2019-01-26T07:35:59.024Z,8.00
2019-01-26T07:36:59.000Z,8.00
2019-01-26T07:37:58.989Z,8.00
2019-01-26T07:38:58.963Z,4.00
2019-01-26T07:39:58.950Z,4.00
2019-01-26T07:40:58.977Z,4.00
2019-01-26T07:41:58.940Z,4.00
2019-01-26T07:42:58.920Z,4.00
2019-01-26T07:43:58.921Z,4.00
2019-01-26T07:44:58.973Z,4.00
2019-01-26T07:45:58.906Z,4.00
2019-01-26T07:46:58.878Z,8.00
2019-01-26T07:47:58.865Z,8.00
2019-01-26T07:48:58.856Z,8.00
2019-01-26T07:49:58.851Z,8.00
2019-01-26T07:50:58.885Z,4.00
2019-01-26T07:51:58.828Z,4.00
2019-01-26T07:52:58.804Z,4.00
2019-01-26T07:53:58.868Z,4.00
2019-01-26T07:54:58.805Z,4.00
2019-01-26T07:55:58.781Z,4.00
2019-01-26T07:56:58.764Z,8.00
2019-01-26T07:57:58.753Z,8.00
2019-01-26T07:58:58.751Z,8.00
2019-01-26T07:59:58.765Z,8.00
2019-01-26T08:00:58.734Z,8.00
2019-01-26T08:01:58.782Z,8.00
2019-01-26T08:02:58.699Z,8.00
2019-01-26T08:03:58.691Z,8.00
2019-01-26T08:04:58.682Z,12.00
2019-01-26T08:05:58.701Z,8.00
2019-01-26T08:06:58.687Z,12.00
2019-01-26T08:07:58.651Z,8.00
2019-01-26T08:08:58.665Z,12.00
2019-01-26T08:09:58.630Z,8.00
2019-01-26T08:10:58.613Z,12.00
2019-01-26T08:11:58.617Z,8.00
2019-01-26T08:12:58.600Z,12.00
2019-01-26T08:13:58.577Z,12.00
2019-01-26T08:14:58.577Z,12.00
2019-01-26T08:15:58.558Z,16.00
2019-01-26T08:16:58.573Z,12.00
2019-01-26T08:17:58.545Z,12.00
2019-01-26T08:18:58.652Z,16.00
2019-01-26T08:19:58.519Z,12.00
2019-01-26T08:20:58.509Z,16.00
2019-01-26T08:21:58.519Z,16.00
2019-01-26T08:22:58.502Z,16.00
2019-01-26T08:23:58.471Z,16.00
2019-01-26T08:24:58.465Z,20.00
2019-01-26T08:25:58.459Z,20.00
2019-01-26T08:26:58.450Z,20.00
2019-01-26T08:27:58.436Z,20.00
2019-01-26T08:28:58.417Z,24.00
2019-01-26T08:29:58.404Z,24.00
2019-01-26T08:30:58.394Z,28.00
2019-01-26T08:31:58.402Z,32.00
2019-01-26T08:32:58.393Z,32.00
2019-01-26T08:33:58.355Z,32.00
2019-01-26T08:34:58.351Z,36.00
2019-01-26T08:35:58.352Z,36.00
2019-01-26T08:36:58.342Z,32.00
2019-01-26T08:37:58.324Z,32.00
2019-01-26T08:38:58.316Z,32.00
2019-01-26T08:39:58.300Z,32.00
2019-01-26T08:40:58.296Z,36.00
2019-01-26T08:41:58.284Z,36.00
2019-01-26T08:42:58.264Z,36.00
2019-01-26T08:43:58.252Z,36.00
2019-01-26T08:44:58.257Z,40.00
2019-01-26T08:45:58.327Z,40.00
2019-01-26T08:46:58.236Z,40.00
2019-01-26T08:47:58.209Z,40.00
2019-01-26T08:48:58.207Z,36.00
2019-01-26T08:49:58.192Z,36.00
2019-01-26T08:50:58.358Z,40.00
2019-01-26T08:51:58.237Z,40.00
2019-01-26T08:52:58.163Z,36.00
2019-01-26T08:53:58.139Z,36.00
2019-01-26T08:54:58.138Z,32.00
2019-01-26T08:55:58.130Z,32.00
2019-01-26T08:56:58.140Z,32.00
2019-01-26T08:57:58.104Z,32.00
2019-01-26T08:58:58.098Z,28.00
2019-01-26T08:59:58.079Z,28.00
2019-01-26T09:00:58.115Z,28.00
2019-01-26T09:01:59.160Z,32.00
2019-01-26T09:02:58.047Z,28.00
2019-01-26T09:03:58.037Z,28.00
2019-01-26T09:04:58.027Z,32.00
2019-01-26T09:05:58.015Z,28.00
2019-01-26T09:06:58.014Z,28.00
2019-01-26T09:07:57.985Z,24.00
2019-01-26T09:08:57.995Z,24.00
2019-01-26T09:09:57.971Z,24.00
2019-01-26T09:10:57.965Z,28.00
2019-01-26T09:11:57.971Z,28.00
2019-01-26T09:12:57.948Z,32.00
2019-01-26T09:13:58.474Z,28.00
2019-01-26T09:14:57.948Z,32.00
2019-01-26T09:15:57.909Z,36.00
2019-01-26T09:16:57.971Z,36.00
2019-01-26T09:17:57.899Z,36.00
2019-01-26T09:18:57.876Z,32.00
2019-01-26T09:19:57.866Z,36.00
2019-01-26T09:20:57.860Z,36.00
2019-01-26T09:21:57.846Z,40.00
2019-01-26T09:22:57.845Z,44.00
2019-01-26T09:23:57.811Z,44.00
2019-01-26T09:24:57.807Z,44.00
2019-01-26T09:25:57.795Z,52.00
2019-01-26T09:26:57.799Z,52.00
2019-01-26T09:27:57.814Z,48.00
2019-01-26T09:28:57.842Z,44.00
2019-01-26T09:29:57.758Z,40.00
2019-01-26T09:30:57.743Z,40.00
2019-01-26T09:31:57.724Z,36.00
2019-01-26T09:32:57.737Z,36.00
2019-01-26T09:33:57.704Z,32.00
2019-01-26T09:34:57.869Z,36.00
2019-01-26T09:35:57.698Z,32.00
2019-01-26T09:36:57.682Z,36.00
2019-01-26T09:37:57.678Z,36.00
2019-01-26T09:38:57.658Z,32.00
2019-01-26T09:39:57.633Z,32.00
2019-01-26T09:40:57.642Z,32.00
2019-01-26T09:41:57.615Z,36.00
2019-01-26T09:42:57.633Z,40.00
2019-01-26T09:43:57.609Z,40.00
2019-01-26T09:44:57.590Z,40.00
2019-01-26T09:45:57.574Z,40.00
2019-01-26T09:46:57.572Z,44.00
2019-01-26T09:47:57.566Z,48.00
2019-01-26T09:48:57.543Z,48.00
2019-01-26T09:49:57.540Z,48.00
2019-01-26T09:50:57.533Z,56.00
2019-01-26T09:51:57.541Z,60.00
2019-01-26T09:52:57.511Z,68.00
2019-01-26T09:53:57.500Z,72.00
2019-01-26T09:54:57.474Z,76.00
2019-01-26T09:55:57.483Z,80.00
2019-01-26T09:56:57.454Z,84.00
2019-01-26T09:57:57.455Z,88.00
2019-01-26T09:58:57.435Z,92.00
2019-01-26T09:59:57.444Z,96.00
2019-01-26T10:00:57.428Z,100.00
2019-01-26T10:01:57.403Z,104.00
2019-01-26T10:02:57.406Z,112.00
2019-01-26T10:03:57.390Z,116.00
2019-01-26T10:04:57.390Z,116.00
2019-01-26T10:05:57.358Z,120.00
2019-01-26T10:06:57.358Z,124.00
2019-01-26T10:07:57.386Z,124.00
2019-01-26T10:08:57.331Z,116.00
2019-01-26T10:09:57.332Z,116.00
2019-01-26T10:10:57.313Z,116.00
2019-01-26T10:11:57.302Z,116.00
2019-01-26T10:12:57.338Z,116.00
2019-01-26T10:13:57.287Z,120.00
2019-01-26T10:14:57.266Z,120.00
2019-01-26T10:15:57.259Z,124.00
2019-01-26T10:16:57.246Z,124.00
2019-01-26T10:17:57.243Z,124.00
2019-01-26T10:18:57.212Z,128.00
2019-01-26T10:19:57.204Z,132.00
2019-01-26T10:20:58.055Z,132.00
2019-01-26T10:21:57.184Z,128.00
2019-01-26T10:22:57.187Z,132.00
2019-01-26T10:23:57.159Z,136.00
2019-01-26T10:24:57.148Z,136.00
2019-01-26T10:25:57.138Z,132.00
2019-01-26T10:26:57.123Z,132.00
2019-01-26T10:27:57.166Z,128.00
2019-01-26T10:28:57.103Z,128.00
2019-01-26T10:29:57.109Z,128.00
2019-01-26T10:30:57.101Z,128.00
2019-01-26T10:31:57.077Z,128.00
2019-01-26T10:32:57.078Z,128.00
2019-01-26T10:33:57.049Z,128.00
2019-01-26T10:34:57.042Z,128.00
2019-01-26T10:35:57.028Z,132.00
2019-01-26T10:36:57.027Z,128.00
2019-01-26T10:37:57.015Z,128.00
2019-01-26T10:38:56.989Z,124.00
2019-01-26T10:39:56.981Z,120.00
2019-01-26T10:40:56.987Z,116.00
2019-01-26T10:41:56.966Z,112.00
2019-01-26T10:42:56.966Z,108.00
2019-01-26T10:43:56.956Z,100.00
2019-01-26T10:44:56.940Z,100.00
2019-01-26T10:45:56.944Z,100.00
2019-01-26T10:46:56.909Z,100.00
2019-01-26T10:47:56.894Z,96.00
2019-01-26T10:49:00.810Z,96.00
2019-01-26T10:49:56.888Z,96.00
2019-01-26T10:50:56.906Z,100.00
2019-01-26T10:51:56.857Z,104.00
2019-01-26T10:52:56.845Z,100.00
2019-01-26T10:53:56.847Z,104.00
2019-01-26T10:54:56.817Z,96.00
2019-01-26T10:55:56.822Z,96.00
2019-01-26T10:56:56.799Z,96.00
2019-01-26T10:57:56.780Z,96.00
2019-01-26T10:58:56.794Z,88.00
2019-01-26T10:59:56.763Z,84.00
2019-01-26T11:00:56.845Z,92.00
2019-01-26T11:01:56.740Z,88.00
2019-01-26T11:02:56.738Z,88.00
2019-01-26T11:03:56.731Z,68.00
2019-01-26T11:04:56.715Z,64.00
2019-01-26T11:05:56.710Z,68.00
2019-01-26T11:06:56.771Z,68.00
2019-01-26T11:07:56.681Z,64.00
2019-01-26T11:08:56.675Z,56.00
2019-01-26T11:09:56.652Z,60.00
2019-01-26T11:10:56.647Z,60.00
2019-01-26T11:11:56.647Z,56.00
2019-01-26T11:12:56.628Z,64.00
2019-01-26T11:13:56.633Z,80.00
2019-01-26T11:14:56.598Z,96.00
2019-01-26T11:15:56.612Z,108.00
2019-01-26T11:16:56.669Z,96.00
2019-01-26T11:17:56.559Z,88.00
2019-01-26T11:18:56.579Z,84.00
2019-01-26T11:19:56.545Z,80.00
2019-01-26T11:20:56.615Z,72.00
2019-01-26T11:21:56.722Z,76.00
2019-01-26T11:22:56.518Z,72.00
2019-01-26T11:23:56.524Z,64.00
2019-01-26T11:24:56.504Z,72.00
2019-01-26T11:25:56.479Z,80.00
2019-01-26T11:26:56.462Z,88.00
2019-01-26T11:27:56.469Z,96.00
2019-01-26T11:28:56.464Z,96.00
2019-01-26T11:29:56.446Z,100.00
2019-01-26T11:30:56.617Z,100.00
2019-01-26T11:31:56.416Z,96.00
2019-01-26T11:32:56.400Z,100.00
2019-01-26T11:33:56.412Z,100.00
2019-01-26T11:34:56.392Z,108.00
2019-01-26T11:35:56.413Z,100.00
2019-01-26T11:36:56.401Z,96.00
2019-01-26T11:37:56.347Z,100.00
2019-01-26T11:38:56.345Z,100.00
2019-01-26T11:39:56.340Z,96.00
2019-01-26T11:40:56.326Z,96.00
2019-01-26T11:41:56.303Z,92.00
2019-01-26T11:42:56.337Z,92.00
2019-01-26T11:43:56.307Z,84.00
2019-01-26T11:44:56.276Z,88.00
2019-01-26T11:45:56.287Z,84.00
2019-01-26T11:46:56.243Z,80.00
2019-01-26T11:47:56.243Z,72.00
2019-01-26T11:48:56.251Z,72.00
2019-01-26T11:49:56.230Z,72.00
2019-01-26T11:50:56.207Z,84.00
2019-01-26T11:51:56.205Z,96.00
2019-01-26T11:52:56.185Z,96.00
2019-01-26T11:53:56.198Z,104.00
2019-01-26T11:54:56.164Z,100.00
2019-01-26T11:55:56.164Z,92.00
2019-01-26T11:56:56.156Z,92.00
2019-01-26T11:57:56.136Z,92.00
2019-01-26T11:58:56.138Z,96.00
2019-01-26T11:59:56.137Z,88.00
2019-01-26T12:00:59.605Z,76.00
2019-01-26T12:01:56.138Z,72.00
2019-01-26T12:02:56.077Z,72.00
2019-01-26T12:03:56.110Z,68.00
2019-01-26T12:04:56.072Z,72.00
2019-01-26T12:05:56.041Z,72.00
2019-01-26T12:06:56.030Z,76.00
2019-01-26T12:07:56.065Z,84.00
2019-01-26T12:08:56.012Z,84.00
2019-01-26T12:09:56.014Z,84.00
2019-01-26T12:10:55.984Z,80.00
2019-01-26T12:11:55.988Z,84.00
2019-01-26T12:12:55.985Z,80.00
2019-01-26T12:13:55.962Z,80.00
2019-01-26T12:14:55.961Z,84.00
2019-01-26T12:15:55.960Z,84.00
2019-01-26T12:16:55.943Z,92.00
2019-01-26T12:17:55.909Z,92.00
2019-01-26T12:18:55.899Z,96.00
2019-01-26T12:19:55.900Z,104.00
2019-01-26T12:20:55.900Z,112.00
2019-01-26T12:21:55.871Z,112.00
2019-01-26T12:22:55.861Z,120.00
2019-01-26T12:23:55.851Z,160.00
2019-01-26T12:24:55.854Z,196.00
2019-01-26T12:25:55.948Z,196.00
2019-01-26T12:26:55.823Z,192.00
2019-01-26T12:27:55.799Z,188.00
2019-01-26T12:28:55.804Z,168.00
2019-01-26T12:29:55.835Z,152.00
2019-01-26T12:30:55.787Z,136.00
2019-01-26T12:31:55.765Z,112.00
2019-01-26T12:32:55.761Z,96.00
2019-01-26T12:33:55.748Z,76.00
2019-01-26T12:34:55.744Z,68.00
2019-01-26T12:35:55.718Z,72.00
2019-01-26T12:36:55.724Z,72.00
2019-01-26T12:37:55.689Z,76.00
2019-01-26T12:38:55.694Z,76.00
2019-01-26T12:39:55.689Z,80.00
2019-01-26T12:40:55.664Z,88.00
2019-01-26T12:41:55.662Z,88.00
2019-01-26T12:42:55.640Z,80.00
2019-01-26T12:43:55.623Z,72.00
2019-01-26T12:44:55.647Z,72.00
2019-01-26T12:45:55.628Z,76.00
2019-01-26T12:46:55.600Z,72.00
2019-01-26T12:47:55.598Z,76.00
2019-01-26T12:48:55.584Z,72.00
2019-01-26T12:49:55.578Z,76.00
2019-01-26T12:50:55.596Z,80.00
2019-01-26T12:51:55.537Z,88.00
2019-01-26T12:52:55.526Z,100.00
2019-01-26T12:53:55.525Z,112.00
2019-01-26T12:54:55.519Z,108.00
2019-01-26T12:55:55.498Z,104.00
2019-01-26T12:56:55.496Z,108.00
2019-01-26T12:57:55.470Z,120.00
2019-01-26T12:58:55.463Z,120.00
2019-01-26T12:59:55.478Z,128.00
2019-01-26T13:00:55.452Z,124.00
2019-01-26T13:01:55.429Z,120.00
2019-01-26T13:02:55.474Z,116.00
2019-01-26T13:03:55.441Z,100.00
2019-01-26T13:04:55.410Z,84.00